sensor_id;sensor_type;location;lat;lon;timestamp;temperature;humidity
6462;DHT22;3264;42.862;25.098;2022-11-25T00:01:50;7.10;99.90
6462;DHT22;3264;42.862;25.098;2022-11-25T00:07:40;7.10;99.90
6462;DHT22;3264;42.862;25.098;2022-11-25T00:10:08;7.10;99.20
6462;DHT22;3264;42.862;25.098;2022-11-25T00:12:36;7.10;99.50
6462;DHT22;3264;42.862;25.098;2022-11-25T00:15:05;7.10;99.80
6462;DHT22;3264;42.862;25.098;2022-11-25T00:17:33;7.20;99.60
6462;DHT22;3264;42.862;25.098;2022-11-25T00:20:01;7.10;99.70
6462;DHT22;3264;42.862;25.098;2022-11-25T00:22:39;7.10;99.60
6462;DHT22;3264;42.862;25.098;2022-11-25T00:25:17;7.10;99.00
6462;DHT22;3264;42.862;25.098;2022-11-25T00:27:46;7.10;99.60
6462;DHT22;3264;42.862;25.098;2022-11-25T00:30:16;7.00;99.10
6462;DHT22;3264;42.862;25.098;2022-11-25T00:32:46;7.10;99.60
6462;DHT22;3264;42.862;25.098;2022-11-25T00:35:16;7.00;99.90
6462;DHT22;3264;42.862;25.098;2022-11-25T00:37:45;7.00;99.90
6462;DHT22;3264;42.862;25.098;2022-11-25T00:40:13;6.90;99.90
6462;DHT22;3264;42.862;25.098;2022-11-25T00:42:50;6.90;99.90
6462;DHT22;3264;42.862;25.098;2022-11-25T00:45:34;6.90;99.90
6462;DHT22;3264;42.862;25.098;2022-11-25T00:48:06;6.90;99.90
6462;DHT22;3264;42.862;25.098;2022-11-25T00:50:34;6.90;99.90
6462;DHT22;3264;42.862;25.098;2022-11-25T00:53:04;6.80;99.90
6462;DHT22;3264;42.862;25.098;2022-11-25T00:55:33;6.80;99.90
6462;DHT22;3264;42.862;25.098;2022-11-25T00:58:22;6.90;99.90
6462;DHT22;3264;42.862;25.098;2022-11-25T01:00:50;6.90;99.90
6462;DHT22;3264;42.862;25.098;2022-11-25T01:03:19;6.90;99.90
6462;DHT22;3264;42.862;25.098;2022-11-25T01:05:47;6.90;99.90
6462;DHT22;3264;42.862;25.098;2022-11-25T01:08:17;7.00;99.90
6462;DHT22;3264;42.862;25.098;2022-11-25T01:10:46;6.90;99.50
6462;DHT22;3264;42.862;25.098;2022-11-25T01:13:15;7.00;99.40
6462;DHT22;3264;42.862;25.098;2022-11-25T01:15:42;7.00;99.70
6462;DHT22;3264;42.862;25.098;2022-11-25T01:18:11;6.90;99.60
6462;DHT22;3264;42.862;25.098;2022-11-25T01:20:39;6.90;99.90
6462;DHT22;3264;42.862;25.098;2022-11-25T01:23:41;6.90;99.80
6462;DHT22;3264;42.862;25.098;2022-11-25T01:26:11;6.90;99.90
6462;DHT22;3264;42.862;25.098;2022-11-25T01:28:40;6.90;99.90
6462;DHT22;3264;42.862;25.098;2022-11-25T01:31:09;6.90;99.80
6462;DHT22;3264;42.862;25.098;2022-11-25T01:33:39;7.00;99.00
6462;DHT22;3264;42.862;25.098;2022-11-25T01:36:09;6.90;99.40
6462;DHT22;3264;42.862;25.098;2022-11-25T01:38:38;7.00;99.40
6462;DHT22;3264;42.862;25.098;2022-11-25T01:41:10;7.00;99.00
6462;DHT22;3264;42.862;25.098;2022-11-25T01:43:39;7.00;98.30
6462;DHT22;3264;42.862;25.098;2022-11-25T01:46:11;7.00;99.40
6462;DHT22;3264;42.862;25.098;2022-11-25T01:48:50;7.00;99.20
6462;DHT22;3264;42.862;25.098;2022-11-25T01:51:25;6.90;99.10
6462;DHT22;3264;42.862;25.098;2022-11-25T01:53:58;7.00;99.20
6462;DHT22;3264;42.862;25.098;2022-11-25T01:56:32;7.00;99.00
6462;DHT22;3264;42.862;25.098;2022-11-25T01:59:01;6.90;99.20
6462;DHT22;3264;42.862;25.098;2022-11-25T02:01:30;7.00;97.70
6462;DHT22;3264;42.862;25.098;2022-11-25T02:03:58;6.90;98.40
6462;DHT22;3264;42.862;25.098;2022-11-25T02:06:29;7.00;98.10
6462;DHT22;3264;42.862;25.098;2022-11-25T02:09:03;7.00;98.00
6462;DHT22;3264;42.862;25.098;2022-11-25T02:11:34;7.00;98.20
6462;DHT22;3264;42.862;25.098;2022-11-25T02:14:03;7.00;97.30
6462;DHT22;3264;42.862;25.098;2022-11-25T02:16:32;7.10;97.40
6462;DHT22;3264;42.862;25.098;2022-11-25T02:19:01;7.00;97.50
6462;DHT22;3264;42.862;25.098;2022-11-25T02:21:40;7.00;97.90
6462;DHT22;3264;42.862;25.098;2022-11-25T02:24:15;7.10;97.70
6462;DHT22;3264;42.862;25.098;2022-11-25T02:26:45;7.10;97.20
6462;DHT22;3264;42.862;25.098;2022-11-25T02:29:14;7.10;96.90
6462;DHT22;3264;42.862;25.098;2022-11-25T02:31:43;7.00;97.60
6462;DHT22;3264;42.862;25.098;2022-11-25T02:34:12;7.00;97.80
6462;DHT22;3264;42.862;25.098;2022-11-25T02:36:41;7.00;98.10
6462;DHT22;3264;42.862;25.098;2022-11-25T02:39:08;7.00;98.10
6462;DHT22;3264;42.862;25.098;2022-11-25T02:41:39;7.00;97.90
6462;DHT22;3264;42.862;25.098;2022-11-25T02:44:09;6.90;97.90
6462;DHT22;3264;42.862;25.098;2022-11-25T02:46:38;6.90;98.20
6462;DHT22;3264;42.862;25.098;2022-11-25T02:49:24;6.90;98.50
6462;DHT22;3264;42.862;25.098;2022-11-25T02:51:53;6.90;98.00
6462;DHT22;3264;42.862;25.098;2022-11-25T02:54:20;6.90;97.90
6462;DHT22;3264;42.862;25.098;2022-11-25T02:56:49;6.80;98.40
6462;DHT22;3264;42.862;25.098;2022-11-25T02:59:19;6.70;98.30
6462;DHT22;3264;42.862;25.098;2022-11-25T03:01:47;6.80;98.40
6462;DHT22;3264;42.862;25.098;2022-11-25T03:04:15;6.80;98.10
6462;DHT22;3264;42.862;25.098;2022-11-25T03:06:44;6.80;98.60
6462;DHT22;3264;42.862;25.098;2022-11-25T03:09:11;6.80;98.60
6462;DHT22;3264;42.862;25.098;2022-11-25T03:11:39;6.80;98.50
6462;DHT22;3264;42.862;25.098;2022-11-25T03:14:26;6.80;98.60
6462;DHT22;3264;42.862;25.098;2022-11-25T03:16:55;6.90;98.90
6462;DHT22;3264;42.862;25.098;2022-11-25T03:19:23;6.90;99.20
6462;DHT22;3264;42.862;25.098;2022-11-25T03:21:52;6.80;99.10
6462;DHT22;3264;42.862;25.098;2022-11-25T03:24:20;6.80;98.90
6462;DHT22;3264;42.862;25.098;2022-11-25T03:26:49;6.80;98.70
6462;DHT22;3264;42.862;25.098;2022-11-25T03:29:17;6.70;98.90
6462;DHT22;3264;42.862;25.098;2022-11-25T03:31:47;6.80;99.00
6462;DHT22;3264;42.862;25.098;2022-11-25T03:34:16;6.80;99.10
6462;DHT22;3264;42.862;25.098;2022-11-25T03:36:44;6.80;99.20
6462;DHT22;3264;42.862;25.098;2022-11-25T03:39:12;6.80;99.20
6462;DHT22;3264;42.862;25.098;2022-11-25T03:41:41;6.80;98.90
6462;DHT22;3264;42.862;25.098;2022-11-25T03:44:09;6.90;98.50
6462;DHT22;3264;42.862;25.098;2022-11-25T03:46:37;6.80;99.00
6462;DHT22;3264;42.862;25.098;2022-11-25T03:49:19;6.80;99.20
6462;DHT22;3264;42.862;25.098;2022-11-25T03:51:48;6.80;98.80
6462;DHT22;3264;42.862;25.098;2022-11-25T03:54:17;6.80;99.60
6462;DHT22;3264;42.862;25.098;2022-11-25T03:56:44;6.70;99.90
6462;DHT22;3264;42.862;25.098;2022-11-25T03:59:13;6.70;99.90
6462;DHT22;3264;42.862;25.098;2022-11-25T04:01:40;6.70;99.90
6462;DHT22;3264;42.862;25.098;2022-11-25T04:04:09;6.60;99.90
6462;DHT22;3264;42.862;25.098;2022-11-25T04:06:39;6.60;99.90
6462;DHT22;3264;42.862;25.098;2022-11-25T04:09:09;6.60;99.90
6462;DHT22;3264;42.862;25.098;2022-11-25T04:11:39;6.60;99.90
6462;DHT22;3264;42.862;25.098;2022-11-25T04:14:24;6.50;99.90
6462;DHT22;3264;42.862;25.098;2022-11-25T04:16:53;6.50;99.80
6462;DHT22;3264;42.862;25.098;2022-11-25T04:19:21;6.50;99.70
6462;DHT22;3264;42.862;25.098;2022-11-25T04:21:51;6.60;99.40
6462;DHT22;3264;42.862;25.098;2022-11-25T04:24:20;6.70;98.30
6462;DHT22;3264;42.862;25.098;2022-11-25T04:26:48;6.70;98.70
6462;DHT22;3264;42.862;25.098;2022-11-25T04:29:16;6.70;98.90
6462;DHT22;3264;42.862;25.098;2022-11-25T04:31:45;6.70;99.30
6462;DHT22;3264;42.862;25.098;2022-11-25T04:34:12;6.70;98.30
6462;DHT22;3264;42.862;25.098;2022-11-25T04:36:41;6.80;98.50
6462;DHT22;3264;42.862;25.098;2022-11-25T04:39:11;6.90;98.30
6462;DHT22;3264;42.862;25.098;2022-11-25T04:41:39;6.80;98.80
6462;DHT22;3264;42.862;25.098;2022-11-25T04:44:07;6.60;99.20
6462;DHT22;3264;42.862;25.098;2022-11-25T04:46:38;6.60;99.70
6462;DHT22;3264;42.862;25.098;2022-11-25T04:49:33;6.80;97.90
6462;DHT22;3264;42.862;25.098;2022-11-25T04:52:03;6.90;97.00
6462;DHT22;3264;42.862;25.098;2022-11-25T04:54:33;7.00;96.90
6462;DHT22;3264;42.862;25.098;2022-11-25T04:57:01;7.00;96.90
6462;DHT22;3264;42.862;25.098;2022-11-25T04:59:29;6.90;97.30
6462;DHT22;3264;42.862;25.098;2022-11-25T05:02:06;7.00;96.80
6462;DHT22;3264;42.862;25.098;2022-11-25T05:04:35;6.90;96.40
6462;DHT22;3264;42.862;25.098;2022-11-25T05:07:03;6.90;97.00
6462;DHT22;3264;42.862;25.098;2022-11-25T05:09:33;6.90;97.20
6462;DHT22;3264;42.862;25.098;2022-11-25T05:12:01;6.90;96.60
6462;DHT22;3264;42.862;25.098;2022-11-25T05:14:35;6.90;97.00
6462;DHT22;3264;42.862;25.098;2022-11-25T05:17:03;6.80;97.40
6462;DHT22;3264;42.862;25.098;2022-11-25T05:19:33;6.90;96.60
6462;DHT22;3264;42.862;25.098;2022-11-25T05:22:08;6.90;96.30
6462;DHT22;3264;42.862;25.098;2022-11-25T05:24:39;6.90;97.30
6462;DHT22;3264;42.862;25.098;2022-11-25T05:27:08;6.90;96.80
6462;DHT22;3264;42.862;25.098;2022-11-25T05:29:37;6.80;97.50
6462;DHT22;3264;42.862;25.098;2022-11-25T05:32:06;6.80;96.90
6462;DHT22;3264;42.862;25.098;2022-11-25T05:34:35;6.90;96.50
6462;DHT22;3264;42.862;25.098;2022-11-25T05:37:04;6.90;96.40
6462;DHT22;3264;42.862;25.098;2022-11-25T05:39:43;6.90;96.40
6462;DHT22;3264;42.862;25.098;2022-11-25T05:42:11;6.90;96.60
6462;DHT22;3264;42.862;25.098;2022-11-25T05:44:40;6.90;96.70
6462;DHT22;3264;42.862;25.098;2022-11-25T05:47:08;6.90;96.10
6462;DHT22;3264;42.862;25.098;2022-11-25T05:49:36;7.00;96.40
6462;DHT22;3264;42.862;25.098;2022-11-25T05:52:05;6.90;96.70
6462;DHT22;3264;42.862;25.098;2022-11-25T05:54:33;6.90;96.60
6462;DHT22;3264;42.862;25.098;2022-11-25T05:57:03;7.00;95.80
6462;DHT22;3264;42.862;25.098;2022-11-25T05:59:30;7.00;96.10
6462;DHT22;3264;42.862;25.098;2022-11-25T06:01:58;7.10;95.60
6462;DHT22;3264;42.862;25.098;2022-11-25T06:04:26;7.00;96.10
6462;DHT22;3264;42.862;25.098;2022-11-25T06:06:53;6.90;95.80
6462;DHT22;3264;42.862;25.098;2022-11-25T06:09:22;7.00;95.30
6462;DHT22;3264;42.862;25.098;2022-11-25T06:11:50;7.00;95.50
6462;DHT22;3264;42.862;25.098;2022-11-25T06:14:19;7.00;95.40
6462;DHT22;3264;42.862;25.098;2022-11-25T06:16:48;7.00;96.40
6462;DHT22;3264;42.862;25.098;2022-11-25T06:19:16;7.00;96.20
6462;DHT22;3264;42.862;25.098;2022-11-25T06:21:44;7.10;96.30
6462;DHT22;3264;42.862;25.098;2022-11-25T06:24:12;7.00;96.50
6462;DHT22;3264;42.862;25.098;2022-11-25T06:26:41;7.10;95.80
6462;DHT22;3264;42.862;25.098;2022-11-25T06:29:08;7.20;95.50
6462;DHT22;3264;42.862;25.098;2022-11-25T06:31:38;7.20;96.00
6462;DHT22;3264;42.862;25.098;2022-11-25T06:34:06;7.20;95.80
6462;DHT22;3264;42.862;25.098;2022-11-25T06:36:35;7.20;96.40
6462;DHT22;3264;42.862;25.098;2022-11-25T06:39:12;7.10;96.30
6462;DHT22;3264;42.862;25.098;2022-11-25T06:41:41;7.20;96.30
6462;DHT22;3264;42.862;25.098;2022-11-25T06:44:10;7.20;96.30
6462;DHT22;3264;42.862;25.098;2022-11-25T06:46:40;7.30;96.40
6462;DHT22;3264;42.862;25.098;2022-11-25T06:49:08;7.10;95.60
6462;DHT22;3264;42.862;25.098;2022-11-25T06:51:36;7.20;96.50
6462;DHT22;3264;42.862;25.098;2022-11-25T06:54:05;7.20;96.50
6462;DHT22;3264;42.862;25.098;2022-11-25T06:56:34;7.20;96.50
6462;DHT22;3264;42.862;25.098;2022-11-25T06:59:02;7.10;96.60
6462;DHT22;3264;42.862;25.098;2022-11-25T07:01:31;7.00;96.70
6462;DHT22;3264;42.862;25.098;2022-11-25T07:04:03;7.00;97.00
6462;DHT22;3264;42.862;25.098;2022-11-25T07:06:31;7.10;97.40
6462;DHT22;3264;42.862;25.098;2022-11-25T07:09:01;7.10;97.00
6462;DHT22;3264;42.862;25.098;2022-11-25T07:11:31;7.10;96.60
6462;DHT22;3264;42.862;25.098;2022-11-25T07:14:02;7.10;96.70
6462;DHT22;3264;42.862;25.098;2022-11-25T07:16:31;7.00;96.60
6462;DHT22;3264;42.862;25.098;2022-11-25T07:19:01;7.00;96.40
6462;DHT22;3264;42.862;25.098;2022-11-25T07:21:31;7.10;96.30
6462;DHT22;3264;42.862;25.098;2022-11-25T07:24:01;7.10;96.20
6462;DHT22;3264;42.862;25.098;2022-11-25T07:26:33;7.10;96.20
6462;DHT22;3264;42.862;25.098;2022-11-25T07:29:04;7.20;96.90
6462;DHT22;3264;42.862;25.098;2022-11-25T07:31:33;7.20;97.10
6462;DHT22;3264;42.862;25.098;2022-11-25T07:34:04;7.10;96.50
6462;DHT22;3264;42.862;25.098;2022-11-25T07:36:34;7.00;96.20
6462;DHT22;3264;42.862;25.098;2022-11-25T07:39:04;7.10;96.50
6462;DHT22;3264;42.862;25.098;2022-11-25T07:41:34;7.10;96.30
6462;DHT22;3264;42.862;25.098;2022-11-25T07:44:04;7.20;96.90
6462;DHT22;3264;42.862;25.098;2022-11-25T07:46:35;7.20;97.20
6462;DHT22;3264;42.862;25.098;2022-11-25T07:49:10;7.10;96.70
6462;DHT22;3264;42.862;25.098;2022-11-25T07:51:40;7.20;96.90
6462;DHT22;3264;42.862;25.098;2022-11-25T07:54:10;7.10;96.70
6462;DHT22;3264;42.862;25.098;2022-11-25T07:56:39;7.10;97.10
6462;DHT22;3264;42.862;25.098;2022-11-25T07:59:10;7.10;96.20
6462;DHT22;3264;42.862;25.098;2022-11-25T08:01:39;7.10;96.80
6462;DHT22;3264;42.862;25.098;2022-11-25T08:04:11;7.10;96.70
6462;DHT22;3264;42.862;25.098;2022-11-25T08:06:40;7.10;96.60
6462;DHT22;3264;42.862;25.098;2022-11-25T08:09:11;7.00;96.40
6462;DHT22;3264;42.862;25.098;2022-11-25T08:11:40;6.90;96.30
6462;DHT22;3264;42.862;25.098;2022-11-25T08:14:08;6.90;96.50
6462;DHT22;3264;42.862;25.098;2022-11-25T08:16:37;6.90;96.60
6462;DHT22;3264;42.862;25.098;2022-11-25T08:19:08;6.80;96.40
6462;DHT22;3264;42.862;25.098;2022-11-25T08:21:38;6.80;97.00
6462;DHT22;3264;42.862;25.098;2022-11-25T08:24:07;6.80;96.80
6462;DHT22;3264;42.862;25.098;2022-11-25T08:26:38;6.90;96.60
6462;DHT22;3264;42.862;25.098;2022-11-25T08:29:10;6.90;96.50
6462;DHT22;3264;42.862;25.098;2022-11-25T08:31:40;6.90;96.40
6462;DHT22;3264;42.862;25.098;2022-11-25T08:34:17;7.10;96.10
6462;DHT22;3264;42.862;25.098;2022-11-25T08:36:45;7.10;96.30
6462;DHT22;3264;42.862;25.098;2022-11-25T08:39:14;7.00;96.00
6462;DHT22;3264;42.862;25.098;2022-11-25T08:41:41;7.10;96.20
6462;DHT22;3264;42.862;25.098;2022-11-25T08:44:10;7.00;95.90
6462;DHT22;3264;42.862;25.098;2022-11-25T08:46:38;7.10;95.50
6462;DHT22;3264;42.862;25.098;2022-11-25T08:49:07;7.10;95.60
6462;DHT22;3264;42.862;25.098;2022-11-25T08:51:38;7.10;95.60
6462;DHT22;3264;42.862;25.098;2022-11-25T08:54:07;7.30;95.30
6462;DHT22;3264;42.862;25.098;2022-11-25T08:56:36;7.30;95.40
6462;DHT22;3264;42.862;25.098;2022-11-25T08:59:03;7.40;94.70
6462;DHT22;3264;42.862;25.098;2022-11-25T09:01:31;7.30;95.40
6462;DHT22;3264;42.862;25.098;2022-11-25T09:04:00;7.30;94.90
6462;DHT22;3264;42.862;25.098;2022-11-25T09:06:44;7.50;94.60
6462;DHT22;3264;42.862;25.098;2022-11-25T09:09:13;7.50;94.50
6462;DHT22;3264;42.862;25.098;2022-11-25T09:11:41;7.60;94.60
6462;DHT22;3264;42.862;25.098;2022-11-25T09:14:10;7.70;93.80
6462;DHT22;3264;42.862;25.098;2022-11-25T09:16:38;7.70;93.60
6462;DHT22;3264;42.862;25.098;2022-11-25T09:19:06;7.80;94.10
6462;DHT22;3264;42.862;25.098;2022-11-25T09:21:35;7.80;93.70
6462;DHT22;3264;42.862;25.098;2022-11-25T09:24:04;7.80;93.40
6462;DHT22;3264;42.862;25.098;2022-11-25T09:26:32;7.90;93.90
6462;DHT22;3264;42.862;25.098;2022-11-25T09:29:03;7.80;92.90
6462;DHT22;3264;42.862;25.098;2022-11-25T09:31:31;7.90;92.70
6462;DHT22;3264;42.862;25.098;2022-11-25T09:33:59;7.70;92.80
6462;DHT22;3264;42.862;25.098;2022-11-25T09:36:27;7.80;92.40
6462;DHT22;3264;42.862;25.098;2022-11-25T09:38:56;7.90;92.40
6462;DHT22;3264;42.862;25.098;2022-11-25T09:41:35;7.70;93.10
6462;DHT22;3264;42.862;25.098;2022-11-25T09:44:33;7.80;92.20
6462;DHT22;3264;42.862;25.098;2022-11-25T09:47:27;7.80;92.30
6462;DHT22;3264;42.862;25.098;2022-11-25T09:50:08;7.90;92.60
6462;DHT22;3264;42.862;25.098;2022-11-25T09:52:47;8.00;92.30
6462;DHT22;3264;42.862;25.098;2022-11-25T09:55:23;8.00;92.20
6462;DHT22;3264;42.862;25.098;2022-11-25T09:58:03;8.00;92.00
6462;DHT22;3264;42.862;25.098;2022-11-25T10:00:37;8.10;91.70
6462;DHT22;3264;42.862;25.098;2022-11-25T10:03:14;8.00;90.90
6462;DHT22;3264;42.862;25.098;2022-11-25T10:05:48;7.90;91.60
6462;DHT22;3264;42.862;25.098;2022-11-25T10:08:24;7.90;90.80
6462;DHT22;3264;42.862;25.098;2022-11-25T10:10:59;7.90;90.70
6462;DHT22;3264;42.862;25.098;2022-11-25T10:13:49;7.90;90.60
6462;DHT22;3264;42.862;25.098;2022-11-25T10:16:30;8.00;91.80
6462;DHT22;3264;42.862;25.098;2022-11-25T10:19:01;7.90;90.40
6462;DHT22;3264;42.862;25.098;2022-11-25T10:21:31;7.90;90.80
6462;DHT22;3264;42.862;25.098;2022-11-25T10:23:58;8.00;90.30
6462;DHT22;3264;42.862;25.098;2022-11-25T10:26:31;8.10;90.30
6462;DHT22;3264;42.862;25.098;2022-11-25T10:29:22;8.30;90.30
6462;DHT22;3264;42.862;25.098;2022-11-25T10:31:50;8.20;89.80
6462;DHT22;3264;42.862;25.098;2022-11-25T10:34:30;8.30;89.60
6462;DHT22;3264;42.862;25.098;2022-11-25T10:37:06;8.40;88.80
6462;DHT22;3264;42.862;25.098;2022-11-25T10:39:39;8.60;89.60
6462;DHT22;3264;42.862;25.098;2022-11-25T10:42:13;8.60;88.10
6462;DHT22;3264;42.862;25.098;2022-11-25T10:44:44;8.70;90.00
6462;DHT22;3264;42.862;25.098;2022-11-25T10:47:31;9.00;87.30
6462;DHT22;3264;42.862;25.098;2022-11-25T10:50:15;9.10;86.40
6462;DHT22;3264;42.862;25.098;2022-11-25T10:52:49;9.30;85.10
6462;DHT22;3264;42.862;25.098;2022-11-25T10:55:21;9.40;87.10
6462;DHT22;3264;42.862;25.098;2022-11-25T10:57:51;9.60;87.60
6462;DHT22;3264;42.862;25.098;2022-11-25T11:00:31;9.60;86.70
6462;DHT22;3264;42.862;25.098;2022-11-25T11:03:12;9.60;85.60
6462;DHT22;3264;42.862;25.098;2022-11-25T11:05:44;9.60;84.50
6462;DHT22;3264;42.862;25.098;2022-11-25T11:08:19;9.40;83.10
6462;DHT22;3264;42.862;25.098;2022-11-25T11:11:14;9.40;81.60
6462;DHT22;3264;42.862;25.098;2022-11-25T11:13:43;9.40;84.10
6462;DHT22;3264;42.862;25.098;2022-11-25T11:16:29;9.60;83.20
6462;DHT22;3264;42.862;25.098;2022-11-25T11:18:59;9.80;83.10
6462;DHT22;3264;42.862;25.098;2022-11-25T11:21:30;9.80;83.60
6462;DHT22;3264;42.862;25.098;2022-11-25T11:23:59;9.80;82.70
6462;DHT22;3264;42.862;25.098;2022-11-25T11:26:29;9.70;82.40
6462;DHT22;3264;42.862;25.098;2022-11-25T11:29:10;9.80;84.00
6462;DHT22;3264;42.862;25.098;2022-11-25T11:31:47;10.60;80.50
6462;DHT22;3264;42.862;25.098;2022-11-25T11:34:29;11.80;77.40
6462;DHT22;3264;42.862;25.098;2022-11-25T11:37:17;10.70;75.20
6462;DHT22;3264;42.862;25.098;2022-11-25T11:39:58;10.40;74.90
6462;DHT22;3264;42.862;25.098;2022-11-25T11:42:38;10.70;76.40
6462;DHT22;3264;42.862;25.098;2022-11-25T11:45:21;10.30;74.20
6462;DHT22;3264;42.862;25.098;2022-11-25T11:48:06;10.00;74.20
6462;DHT22;3264;42.862;25.098;2022-11-25T11:50:38;11.60;74.60
6462;DHT22;3264;42.862;25.098;2022-11-25T11:53:14;11.20;72.00
6462;DHT22;3264;42.862;25.098;2022-11-25T11:55:52;10.50;74.00
6462;DHT22;3264;42.862;25.098;2022-11-25T11:58:40;10.30;74.00
6462;DHT22;3264;42.862;25.098;2022-11-25T12:01:19;10.00;73.60
6462;DHT22;3264;42.862;25.098;2022-11-25T12:03:57;10.00;76.20
6462;DHT22;3264;42.862;25.098;2022-11-25T12:06:30;10.10;76.80
6462;DHT22;3264;42.862;25.098;2022-11-25T12:09:04;10.00;75.60
6462;DHT22;3264;42.862;25.098;2022-11-25T12:11:38;10.00;75.50
6462;DHT22;3264;42.862;25.098;2022-11-25T12:14:16;10.00;77.20
6462;DHT22;3264;42.862;25.098;2022-11-25T12:16:54;9.90;78.30
6462;DHT22;3264;42.862;25.098;2022-11-25T12:19:32;9.70;78.30
6462;DHT22;3264;42.862;25.098;2022-11-25T12:22:06;9.60;78.90
6462;DHT22;3264;42.862;25.098;2022-11-25T12:24:41;9.40;78.60
6462;DHT22;3264;42.862;25.098;2022-11-25T12:27:14;9.30;78.90
6462;DHT22;3264;42.862;25.098;2022-11-25T12:29:47;9.20;80.40
6462;DHT22;3264;42.862;25.098;2022-11-25T12:32:35;9.20;79.90
6462;DHT22;3264;42.862;25.098;2022-11-25T12:35:18;9.20;80.20
6462;DHT22;3264;42.862;25.098;2022-11-25T12:37:55;9.10;80.00
6462;DHT22;3264;42.862;25.098;2022-11-25T12:40:31;9.00;80.60
6462;DHT22;3264;42.862;25.098;2022-11-25T12:43:08;9.20;80.30
6462;DHT22;3264;42.862;25.098;2022-11-25T12:45:39;9.20;78.30
6462;DHT22;3264;42.862;25.098;2022-11-25T12:51:40;9.40;79.20
6462;DHT22;3264;42.862;25.098;2022-11-25T12:54:29;9.40;78.80
6462;DHT22;3264;42.862;25.098;2022-11-25T12:57:35;9.50;79.00
6462;DHT22;3264;42.862;25.098;2022-11-25T13:00:13;9.50;79.20
6462;DHT22;3264;42.862;25.098;2022-11-25T13:06:09;9.40;80.00
6462;DHT22;3264;42.862;25.098;2022-11-25T13:08:54;9.20;79.30
6462;DHT22;3264;42.862;25.098;2022-11-25T13:11:53;9.40;79.70
6462;DHT22;3264;42.862;25.098;2022-11-25T13:14:29;9.30;80.40
6462;DHT22;3264;42.862;25.098;2022-11-25T13:16:58;9.60;79.60
6462;DHT22;3264;42.862;25.098;2022-11-25T13:19:27;9.80;80.50
6462;DHT22;3264;42.862;25.098;2022-11-25T13:21:56;9.70;79.00
6462;DHT22;3264;42.862;25.098;2022-11-25T13:24:37;9.60;81.00
6462;DHT22;3264;42.862;25.098;2022-11-25T13:27:07;9.50;82.00
6462;DHT22;3264;42.862;25.098;2022-11-25T13:29:53;9.50;83.20
6462;DHT22;3264;42.862;25.098;2022-11-25T13:32:27;9.40;84.50
6462;DHT22;3264;42.862;25.098;2022-11-25T13:38:09;9.20;85.80
6462;DHT22;3264;42.862;25.098;2022-11-25T13:40:59;9.10;85.20
6462;DHT22;3264;42.862;25.098;2022-11-25T13:43:28;9.20;85.40
6462;DHT22;3264;42.862;25.098;2022-11-25T13:45:56;9.30;85.80
6462;DHT22;3264;42.862;25.098;2022-11-25T13:48:27;9.20;85.20
6462;DHT22;3264;42.862;25.098;2022-11-25T13:51:14;9.00;86.30
6462;DHT22;3264;42.862;25.098;2022-11-25T13:53:50;8.90;88.30
6462;DHT22;3264;42.862;25.098;2022-11-25T13:56:27;8.80;88.20
6462;DHT22;3264;42.862;25.098;2022-11-25T13:59:18;8.80;88.40
6462;DHT22;3264;42.862;25.098;2022-11-25T14:01:53;8.60;89.30
6462;DHT22;3264;42.862;25.098;2022-11-25T14:04:37;8.60;89.50
6462;DHT22;3264;42.862;25.098;2022-11-25T14:07:14;8.60;89.80
6462;DHT22;3264;42.862;25.098;2022-11-25T14:10:02;8.60;90.60
6462;DHT22;3264;42.862;25.098;2022-11-25T14:15:49;8.50;91.10
6462;DHT22;3264;42.862;25.098;2022-11-25T14:18:44;8.40;91.40
6462;DHT22;3264;42.862;25.098;2022-11-25T14:21:26;8.40;91.60
6462;DHT22;3264;42.862;25.098;2022-11-25T14:24:14;8.40;91.70
6462;DHT22;3264;42.862;25.098;2022-11-25T14:26:50;8.40;92.30
6462;DHT22;3264;42.862;25.098;2022-11-25T14:29:24;8.30;92.50
6462;DHT22;3264;42.862;25.098;2022-11-25T14:31:58;8.30;92.70
6462;DHT22;3264;42.862;25.098;2022-11-25T14:34:32;8.30;93.20
6462;DHT22;3264;42.862;25.098;2022-11-25T14:37:08;8.20;93.30
6462;DHT22;3264;42.862;25.098;2022-11-25T14:39:40;8.10;93.60
6462;DHT22;3264;42.862;25.098;2022-11-25T14:42:12;8.00;93.80
6462;DHT22;3264;42.862;25.098;2022-11-25T14:44:48;8.00;93.80
6462;DHT22;3264;42.862;25.098;2022-11-25T14:47:21;7.90;94.00
6462;DHT22;3264;42.862;25.098;2022-11-25T14:49:50;7.90;94.40
6462;DHT22;3264;42.862;25.098;2022-11-25T14:52:21;8.00;94.30
6462;DHT22;3264;42.862;25.098;2022-11-25T14:54:52;8.00;94.30
6462;DHT22;3264;42.862;25.098;2022-11-25T14:57:23;7.90;94.20
6462;DHT22;3264;42.862;25.098;2022-11-25T14:59:55;8.00;94.10
6462;DHT22;3264;42.862;25.098;2022-11-25T15:02:27;8.00;94.50
6462;DHT22;3264;42.862;25.098;2022-11-25T15:07:56;7.80;94.90
6462;DHT22;3264;42.862;25.098;2022-11-25T15:10:48;7.90;95.30
6462;DHT22;3264;42.862;25.098;2022-11-25T15:13:30;7.80;95.30
6462;DHT22;3264;42.862;25.098;2022-11-25T15:16:07;7.90;95.20
6462;DHT22;3264;42.862;25.098;2022-11-25T15:18:37;7.80;95.20
6462;DHT22;3264;42.862;25.098;2022-11-25T15:21:12;7.80;95.60
6462;DHT22;3264;42.862;25.098;2022-11-25T15:23:42;7.80;95.60
6462;DHT22;3264;42.862;25.098;2022-11-25T15:26:17;7.80;95.10
6462;DHT22;3264;42.862;25.098;2022-11-25T15:28:46;7.80;94.90
6462;DHT22;3264;42.862;25.098;2022-11-25T15:31:19;7.90;95.20
6462;DHT22;3264;42.862;25.098;2022-11-25T15:33:50;7.90;95.60
6462;DHT22;3264;42.862;25.098;2022-11-25T15:36:21;7.90;96.00
6462;DHT22;3264;42.862;25.098;2022-11-25T15:38:50;7.80;96.10
6462;DHT22;3264;42.862;25.098;2022-11-25T15:41:23;7.70;96.00
6462;DHT22;3264;42.862;25.098;2022-11-25T15:43:55;7.80;95.60
6462;DHT22;3264;42.862;25.098;2022-11-25T15:46:27;7.80;95.70
6462;DHT22;3264;42.862;25.098;2022-11-25T15:48:57;7.80;95.70
6462;DHT22;3264;42.862;25.098;2022-11-25T15:51:33;7.70;96.00
6462;DHT22;3264;42.862;25.098;2022-11-25T15:54:06;7.70;96.30
6462;DHT22;3264;42.862;25.098;2022-11-25T15:56:44;7.70;95.70
6462;DHT22;3264;42.862;25.098;2022-11-25T15:59:39;7.70;96.30
6462;DHT22;3264;42.862;25.098;2022-11-25T16:02:30;7.70;95.60
6462;DHT22;3264;42.862;25.098;2022-11-25T16:10:52;7.60;96.30
6462;DHT22;3264;42.862;25.098;2022-11-25T16:13:33;7.60;96.30
6462;DHT22;3264;42.862;25.098;2022-11-25T16:16:21;7.60;96.20
6462;DHT22;3264;42.862;25.098;2022-11-25T16:21:58;7.60;96.80
6462;DHT22;3264;42.862;25.098;2022-11-25T16:24:34;7.60;96.70
6462;DHT22;3264;42.862;25.098;2022-11-25T16:27:06;7.40;96.50
6462;DHT22;3264;42.862;25.098;2022-11-25T16:29:52;7.50;96.20
6462;DHT22;3264;42.862;25.098;2022-11-25T16:32:21;7.40;96.60
6462;DHT22;3264;42.862;25.098;2022-11-25T16:34:54;7.40;96.30
6462;DHT22;3264;42.862;25.098;2022-11-25T16:37:23;7.40;96.30
6462;DHT22;3264;42.862;25.098;2022-11-25T16:39:52;7.30;96.40
6462;DHT22;3264;42.862;25.098;2022-11-25T16:42:21;7.40;96.40
6462;DHT22;3264;42.862;25.098;2022-11-25T16:44:51;7.40;96.10
6462;DHT22;3264;42.862;25.098;2022-11-25T16:47:20;7.40;95.60
6462;DHT22;3264;42.862;25.098;2022-11-25T16:49:51;7.40;95.80
6462;DHT22;3264;42.862;25.098;2022-11-25T16:52:20;7.20;95.90
6462;DHT22;3264;42.862;25.098;2022-11-25T16:54:49;7.20;95.70
6462;DHT22;3264;42.862;25.098;2022-11-25T16:57:19;7.20;95.90
6462;DHT22;3264;42.862;25.098;2022-11-25T16:59:49;7.10;95.80
6462;DHT22;3264;42.862;25.098;2022-11-25T17:02:23;7.20;95.30
6462;DHT22;3264;42.862;25.098;2022-11-25T17:04:52;7.20;95.20
6462;DHT22;3264;42.862;25.098;2022-11-25T17:07:21;7.20;95.60